createdAt,value
2022-08-16T00:00:52.117Z,97787.98
2022-08-16T00:03:25.302Z,97784.20
2022-08-16T00:05:58.601Z,97782.67
2022-08-16T00:08:37.122Z,97782.04
2022-08-16T00:11:15.036Z,97780.52
2022-08-16T00:13:53.861Z,97783.59
2022-08-16T00:17:00.905Z,97782.48
2022-08-16T00:19:28.203Z,97788.17
2022-08-16T00:22:06.814Z,97789.77
2022-08-16T00:24:46.790Z,97793.79
2022-08-16T00:27:20.815Z,97792.84
2022-08-16T00:30:00.871Z,97792.23
2022-08-16T00:32:48.069Z,97788.76
2022-08-16T00:35:25.867Z,97788.68
2022-08-16T00:38:03.032Z,97786.81
2022-08-16T00:40:57.799Z,97783.77
2022-08-16T00:43:42.817Z,97788.70
2022-08-16T00:46:34.191Z,97789.94
2022-08-16T00:49:17.310Z,97783.88
2022-08-16T00:51:55.555Z,97787.92
2022-08-16T00:54:32.981Z,97787.60
2022-08-16T00:57:07.456Z,97787.80
2022-08-16T00:59:50.735Z,97789.30
2022-08-16T01:02:33.084Z,97786.95
2022-08-16T01:05:10.591Z,97790.58
2022-08-16T01:07:51.591Z,97791.48
2022-08-16T01:10:32.549Z,97790.41
2022-08-16T01:13:12.336Z,97790.24
2022-08-16T01:15:52.681Z,97789.25
2022-08-16T01:18:40.172Z,97792.31
2022-08-16T01:21:23.112Z,97793.82
2022-08-16T01:24:52.180Z,97798.67
2022-08-16T01:27:15.130Z,97803.39
2022-08-16T01:29:58.369Z,97806.16
2022-08-16T01:32:36.033Z,97810.34
2022-08-16T01:35:17.711Z,97804.61
2022-08-16T01:37:55.214Z,97807.39
2022-08-16T01:40:32.209Z,97804.44
2022-08-16T01:43:08.347Z,97803.44
2022-08-16T01:45:41.754Z,97807.58
2022-08-16T01:48:20.141Z,97807.17
2022-08-16T01:51:08.789Z,97806.56
2022-08-16T01:53:43.611Z,97800.69
2022-08-16T01:56:24.972Z,97795.13
2022-08-16T01:59:00.194Z,97797.16
2022-08-16T02:01:34.935Z,97804.14
2022-08-16T02:04:11.007Z,97808.79
2022-08-16T02:06:47.066Z,97805.76
2022-08-16T02:09:21.499Z,97802.07
2022-08-16T02:11:57.776Z,97799.48
2022-08-16T02:14:31.588Z,97800.59
2022-08-16T02:17:07.178Z,97802.39
2022-08-16T02:19:59.329Z,97802.06
2022-08-16T02:22:36.732Z,97804.94
2022-08-16T02:25:14.863Z,97811.59
2022-08-16T02:27:51.018Z,97809.52
2022-08-16T02:30:35.939Z,97812.27
2022-08-16T02:33:15.628Z,97816.19
2022-08-16T02:35:54.016Z,97815.75
2022-08-16T02:38:29.205Z,97816.34
2022-08-16T02:41:07.369Z,97819.41
2022-08-16T02:43:42.694Z,97817.59
2022-08-16T02:46:15.109Z,97815.95
2022-08-16T02:48:49.494Z,97815.88
2022-08-16T02:51:23.317Z,97816.30
2022-08-16T02:53:56.689Z,97813.30
2022-08-16T02:56:32.368Z,97813.13
2022-08-16T02:59:11.819Z,97808.58
2022-08-16T03:01:46.940Z,97809.98
2022-08-16T03:04:49.915Z,97807.65
2022-08-16T03:07:15.938Z,97801.80
2022-08-16T03:10:00.828Z,97809.96
2022-08-16T03:12:36.658Z,97810.29
2022-08-16T03:15:12.345Z,97814.77
2022-08-16T03:17:53.221Z,97815.33
2022-08-16T03:20:32.589Z,97817.20
2022-08-16T03:23:09.379Z,97818.70
2022-08-16T03:25:44.620Z,97818.61
2022-08-16T03:28:18.484Z,97811.13
2022-08-16T03:30:50.588Z,97817.04
2022-08-16T03:33:24.975Z,97823.48
2022-08-16T03:36:29.675Z,97823.54
2022-08-16T03:38:56.854Z,97818.78
2022-08-16T03:41:29.617Z,97818.80
2022-08-16T03:44:43.985Z,97818.83
2022-08-16T03:47:18.958Z,97813.20
2022-08-16T03:49:52.650Z,97810.62
2022-08-16T03:52:29.942Z,97812.99
2022-08-16T03:55:05.510Z,97815.18
2022-08-16T03:57:42.761Z,97819.48
2022-08-16T04:00:40.295Z,97827.08
2022-08-16T04:03:13.600Z,97825.86
2022-08-16T04:05:54.160Z,97820.43
2022-08-16T04:08:27.134Z,97819.89
2022-08-16T04:10:59.704Z,97819.18
2022-08-16T04:14:01.492Z,97823.48
2022-08-16T04:16:27.128Z,97827.64
2022-08-16T04:19:02.105Z,97833.23
2022-08-16T04:21:46.091Z,97827.81
2022-08-16T04:24:20.438Z,97828.79
2022-08-16T04:26:53.198Z,97829.23
2022-08-16T04:29:44.142Z,97832.59
2022-08-16T04:32:19.695Z,97837.29
2022-08-16T04:34:52.530Z,97840.33
2022-08-16T04:37:25.525Z,97841.56
2022-08-16T04:39:58.186Z,97838.95
2022-08-16T04:42:35.833Z,97839.42
2022-08-16T04:45:14.868Z,97840.62
2022-08-16T04:47:56.315Z,97841.95
2022-08-16T04:50:30.743Z,97844.17
2022-08-16T04:53:05.634Z,97844.26
2022-08-16T04:55:38.935Z,97841.99
2022-08-16T04:58:38.433Z,97843.84
2022-08-16T05:01:08.036Z,97849.39
2022-08-16T05:03:41.770Z,97852.83
2022-08-16T05:06:14.676Z,97853.98
2022-08-16T05:08:50.539Z,97858.77
2022-08-16T05:11:32.089Z,97858.02
2022-08-16T05:14:05.612Z,97863.65
2022-08-16T05:16:41.569Z,97867.41
2022-08-16T05:19:16.475Z,97872.42
2022-08-16T05:21:50.422Z,97872.52
2022-08-16T05:24:24.913Z,97872.92
2022-08-16T05:26:59.576Z,97871.96
2022-08-16T05:30:00.966Z,97871.88
2022-08-16T05:32:36.624Z,97871.61
2022-08-16T05:35:20.223Z,97871.39
2022-08-16T05:37:57.395Z,97872.52
2022-08-16T05:40:30.976Z,97879.66
2022-08-16T05:43:04.016Z,97879.05
2022-08-16T05:45:37.208Z,97883.75
2022-08-16T05:48:09.905Z,97886.80
2022-08-16T05:50:45.145Z,97885.45
2022-08-16T05:53:25.594Z,97886.67
2022-08-16T05:55:59.153Z,97889.64
2022-08-16T05:58:35.341Z,97891.46
2022-08-16T06:01:11.743Z,97891.39
2022-08-16T06:03:44.447Z,97892.30
2022-08-16T06:06:28.078Z,97894.23
2022-08-16T06:09:03.431Z,97903.43
2022-08-16T06:11:35.875Z,97905.81
2022-08-16T06:14:09.511Z,97901.59
2022-08-16T06:16:42.490Z,97908.15
2022-08-16T06:19:15.097Z,97906.28
2022-08-16T06:21:55.027Z,97909.95
2022-08-16T06:24:53.595Z,97907.99
2022-08-16T06:27:25.095Z,97907.97
2022-08-16T06:29:58.489Z,97908.85
2022-08-16T06:32:37.013Z,97905.96
2022-08-16T06:35:16.134Z,97909.23
2022-08-16T06:37:51.228Z,97908.59
2022-08-16T06:40:33.658Z,97900.80
2022-08-16T06:43:07.335Z,97898.63
2022-08-16T06:45:49.881Z,97900.17
2022-08-16T06:48:33.058Z,97900.98
2022-08-16T06:51:09.997Z,97903.23
2022-08-16T06:53:44.250Z,97900.55
2022-08-16T06:56:23.146Z,97902.56
2022-08-16T06:58:57.804Z,97905.50
2022-08-16T07:01:45.060Z,97910.32
2022-08-16T07:04:32.340Z,97909.55
2022-08-16T07:07:09.711Z,97904.80
2022-08-16T07:09:43.913Z,97911.97
2022-08-16T07:12:16.108Z,97914.16
2022-08-16T07:14:49.876Z,97917.78
2022-08-16T07:17:24.005Z,97921.93
2022-08-16T07:20:04.117Z,97920.63
2022-08-16T07:22:58.738Z,97914.40
2022-08-16T07:25:32.022Z,97911.34
2022-08-16T07:28:05.211Z,97906.30
2022-08-16T07:30:46.512Z,97902.80
2022-08-16T07:33:51.710Z,97903.52
2022-08-16T07:36:13.432Z,97898.41
2022-08-16T07:38:54.607Z,97901.26
2022-08-16T07:41:27.422Z,97905.09
2022-08-16T07:44:02.700Z,97904.86
2022-08-16T07:46:55.561Z,97910.20
2022-08-16T07:49:32.255Z,97903.50
2022-08-16T07:52:18.969Z,97903.35
2022-08-16T07:54:54.559Z,97901.02
2022-08-16T07:57:29.664Z,97904.08
2022-08-16T08:00:03.673Z,97901.14
2022-08-16T08:02:38.945Z,97907.71
2022-08-16T08:05:14.979Z,97901.59
2022-08-16T08:07:48.068Z,97899.69
2022-08-16T08:10:29.218Z,97902.86
2022-08-16T08:13:04.399Z,97902.14
2022-08-16T08:15:37.036Z,97899.98
2022-08-16T08:18:28.910Z,97906.86
2022-08-16T08:21:02.655Z,97905.16
2022-08-16T08:23:42.420Z,97906.86
2022-08-16T08:26:17.862Z,97904.02
2022-08-16T08:28:50.514Z,97907.15
2022-08-16T08:31:23.187Z,97905.70
2022-08-16T08:33:56.931Z,97907.63
2022-08-16T08:36:34.197Z,97908.63
2022-08-16T08:39:12.983Z,97910.20
2022-08-16T08:41:49.431Z,97908.14
2022-08-16T08:44:29.449Z,97906.37
2022-08-16T08:47:12.166Z,97901.30
2022-08-16T08:49:50.223Z,97902.10
2022-08-16T08:52:34.849Z,97909.91
2022-08-16T08:55:13.153Z,97910.93
2022-08-16T08:57:49.261Z,97912.09
2022-08-16T09:00:26.941Z,97906.31
2022-08-16T09:03:04.825Z,97912.46
2022-08-16T09:05:43.994Z,97910.34
2022-08-16T09:08:19.651Z,97907.14
2022-08-16T09:11:01.894Z,97903.67
2022-08-16T09:13:37.760Z,97906.98
2022-08-16T09:17:01.614Z,97902.17
2022-08-16T09:19:13.413Z,97910.66
2022-08-16T09:21:56.248Z,97908.67
2022-08-16T09:24:51.746Z,97908.54
2022-08-16T09:27:25.237Z,97905.79
2022-08-16T09:29:59.779Z,97907.09
2022-08-16T09:32:35.313Z,97903.42
2022-08-16T09:35:11.155Z,97902.38
2022-08-16T09:37:44.505Z,97900.73
2022-08-16T09:40:42.556Z,97905.23
2022-08-16T09:43:58.036Z,97900.88
2022-08-16T09:46:44.923Z,97900.16
2022-08-16T09:49:12.118Z,97902.59
2022-08-16T09:51:46.587Z,97893.10
2022-08-16T09:54:23.048Z,97887.98
2022-08-16T09:56:55.809Z,97886.55
2022-08-16T09:59:30.799Z,97891.09
2022-08-16T10:02:26.135Z,97891.41
2022-08-16T10:04:59.004Z,97898.80
2022-08-16T10:07:44.210Z,97905.06
2022-08-16T10:10:30.375Z,97905.63
2022-08-16T10:13:16.521Z,97906.05
2022-08-16T10:15:55.980Z,97911.77
2022-08-16T10:18:56.423Z,97905.19
2022-08-16T10:21:23.948Z,97904.55
2022-08-16T10:23:56.923Z,97906.59
2022-08-16T10:27:20.024Z,97904.70
2022-08-16T10:29:25.731Z,97911.30
2022-08-16T10:32:20.840Z,97911.98
2022-08-16T10:34:53.619Z,97912.94
2022-08-16T10:37:36.047Z,97913.56
2022-08-16T10:40:28.664Z,97909.77
2022-08-16T10:43:08.427Z,97908.15
2022-08-16T10:46:00.963Z,97901.64
2022-08-16T10:48:34.612Z,97900.55
2022-08-16T10:51:14.659Z,97901.43
2022-08-16T10:53:47.279Z,97898.09
2022-08-16T10:56:52.627Z,97897.36
2022-08-16T11:02:57.835Z,97902.84
2022-08-16T11:05:07.081Z,97898.96
2022-08-16T11:07:47.252Z,97897.84
2022-08-16T11:16:26.881Z,97888.52
2022-08-16T11:19:05.345Z,97892.61
2022-08-16T11:24:44.714Z,97894.16
2022-08-16T11:27:24.137Z,97892.51
2022-08-16T11:29:59.757Z,97889.02
2022-08-16T11:32:35.729Z,97884.97
2022-08-16T11:35:14.819Z,97883.67
2022-08-16T11:38:47.213Z,97880.66
2022-08-16T11:40:53.154Z,97873.27
2022-08-16T11:43:27.739Z,97873.69
2022-08-16T11:46:44.753Z,97872.98
2022-08-16T11:48:58.314Z,97873.07
2022-08-16T11:51:32.648Z,97879.64
2022-08-16T11:54:05.479Z,97885.20
2022-08-16T11:56:53.099Z,97891.89
2022-08-16T11:59:32.848Z,97894.20
2022-08-16T12:02:31.106Z,97898.59
2022-08-16T12:05:03.897Z,97900.08
2022-08-16T14:16:47.352Z,97852.00
2022-08-16T14:19:22.512Z,97852.69
2022-08-16T14:22:13.583Z,97853.05
2022-08-16T14:24:48.985Z,97848.81
2022-08-16T14:27:22.256Z,97854.01
2022-08-16T14:29:55.394Z,97857.63
2022-08-16T14:32:33.105Z,97859.68
2022-08-16T14:35:09.165Z,97860.65
2022-08-16T14:37:43.016Z,97861.91
2022-08-16T14:40:17.487Z,97864.89
2022-08-16T14:42:50.601Z,97866.92
2022-08-16T14:45:27.683Z,97871.71
2022-08-16T14:48:00.038Z,97873.98
2022-08-16T14:50:32.277Z,97869.89
2022-08-16T14:53:07.299Z,97866.21
2022-08-16T14:55:41.346Z,97875.94
2022-08-16T14:58:19.179Z,97877.43
2022-08-16T15:00:52.084Z,97877.48
2022-08-16T15:03:25.722Z,97879.08
2022-08-16T15:05:59.455Z,97883.67
2022-08-16T15:08:34.187Z,97880.69
2022-08-16T15:11:12.166Z,97884.35
2022-08-16T15:13:46.569Z,97883.71
2022-08-16T15:16:19.595Z,97885.00
2022-08-16T15:18:53.394Z,97881.02
2022-08-16T15:21:26.797Z,97872.29
2022-08-16T15:24:06.492Z,97870.85
2022-08-16T15:26:50.604Z,97869.45
2022-08-16T15:29:23.584Z,97863.04
2022-08-16T15:32:01.216Z,97862.22
2022-08-16T15:34:34.209Z,97860.83
2022-08-16T15:37:06.834Z,97867.65
2022-08-16T15:39:40.189Z,97864.41
2022-08-16T15:42:27.501Z,97869.40
2022-08-16T15:45:02.365Z,97879.80
2022-08-16T15:47:55.557Z,97886.23
2022-08-16T15:50:32.386Z,97887.64
2022-08-16T15:53:12.603Z,97886.59
2022-08-16T15:55:44.979Z,97892.44
2022-08-16T15:58:35.681Z,97894.70
2022-08-16T16:01:11.070Z,97899.94
2022-08-16T16:03:44.747Z,97897.30
2022-08-16T16:06:21.288Z,97899.47
2022-08-16T16:09:02.950Z,97906.02
2022-08-16T16:11:38.931Z,97909.79
2022-08-16T16:14:11.487Z,97906.05
2022-08-16T16:16:50.644Z,97902.50
2022-08-16T16:19:26.630Z,97898.90
2022-08-16T16:22:03.583Z,97898.08
2022-08-16T16:24:37.242Z,97893.74
2022-08-16T16:27:12.505Z,97895.65
2022-08-16T16:29:46.410Z,97902.92
2022-08-16T16:32:34.718Z,97904.96
2022-08-16T16:35:10.793Z,97903.65
2022-08-16T16:37:44.897Z,97901.59
2022-08-16T16:40:23.987Z,97897.14
2022-08-16T16:43:08.710Z,97897.33
2022-08-16T16:45:46.638Z,97897.84
2022-08-16T16:48:22.079Z,97899.77
2022-08-16T16:51:09.575Z,97904.77
2022-08-16T16:53:55.909Z,97905.98
2022-08-16T16:56:37.268Z,97917.41
2022-08-16T16:59:12.231Z,97915.83
2022-08-16T17:02:00.530Z,97921.16
2022-08-16T17:04:42.681Z,97920.94
2022-08-16T17:07:15.553Z,97923.35
2022-08-16T17:09:47.967Z,97923.55
2022-08-16T17:12:25.230Z,97930.27
2022-08-16T17:15:14.912Z,97932.55
2022-08-16T17:17:59.962Z,97933.54
2022-08-16T17:20:36.182Z,97939.31
2022-08-16T17:23:10.965Z,97936.13
2022-08-16T17:28:59.593Z,97942.99
2022-08-16T17:31:40.604Z,97944.60
2022-08-16T17:37:08.191Z,97948.05
2022-08-16T17:39:28.171Z,97946.20
2022-08-16T17:39:28.490Z,97934.84
2022-08-16T17:39:59.527Z,97949.86
2022-08-16T17:42:34.191Z,97955.84
2022-08-16T17:45:07.059Z,97954.44
2022-08-16T17:47:39.443Z,97953.86
2022-08-16T17:50:12.830Z,97953.65
2022-08-16T17:52:55.811Z,97952.15
2022-08-16T17:55:33.169Z,97965.55
2022-08-16T17:58:23.096Z,97963.20
2022-08-16T18:01:02.064Z,97962.41
2022-08-16T18:04:02.507Z,97965.21
2022-08-16T18:06:31.246Z,97969.41
2022-08-16T18:09:04.168Z,97971.35
2022-08-16T18:11:40.785Z,97970.95
2022-08-16T18:14:15.879Z,97972.55
2022-08-16T18:16:49.948Z,97972.66
2022-08-16T18:19:22.637Z,97971.85
2022-08-16T18:22:09.001Z,97970.77
2022-08-16T18:24:42.185Z,97976.57
2022-08-16T18:27:25.851Z,97980.78
2022-08-16T18:29:59.451Z,97984.43
2022-08-16T18:32:33.192Z,97986.14
2022-08-16T18:35:06.612Z,97988.55
2022-08-16T18:37:38.889Z,97990.77
2022-08-16T18:40:14.909Z,97992.33
2022-08-16T18:42:58.368Z,97995.67
2022-08-16T18:45:35.081Z,97999.99
2022-08-16T18:48:10.493Z,98008.14
2022-08-16T18:51:03.846Z,98005.71
2022-08-16T18:53:39.046Z,98004.63
2022-08-16T18:56:11.512Z,98002.21
2022-08-16T18:58:44.196Z,97998.17
2022-08-16T19:01:17.494Z,98001.49
2022-08-16T19:03:50.247Z,98004.42
2022-08-16T19:06:24.696Z,98007.88
2022-08-16T19:08:57.792Z,98009.04
2022-08-16T19:11:30.911Z,98009.73
2022-08-16T19:14:05.398Z,98009.18
2022-08-16T19:16:39.592Z,98010.34
2022-08-16T19:19:12.583Z,98008.34
2022-08-16T19:21:46.129Z,98007.55
2022-08-16T19:24:20.925Z,98010.94
2022-08-16T19:26:54.475Z,98012.57
2022-08-16T19:29:30.163Z,98010.88
2022-08-16T19:32:03.011Z,98010.11
2022-08-16T19:34:36.985Z,98012.91
2022-08-16T19:37:10.142Z,98011.95
2022-08-16T19:39:43.003Z,98016.49
2022-08-16T19:42:20.239Z,98020.30
2022-08-16T19:44:55.832Z,98023.77
2022-08-16T19:47:28.805Z,98036.70
2022-08-16T19:50:02.803Z,98035.00
2022-08-16T19:52:37.285Z,98035.96
2022-08-16T19:55:13.173Z,98033.56
2022-08-16T19:57:48.737Z,98031.49
2022-08-16T20:00:21.984Z,98039.01
2022-08-16T20:03:15.469Z,98045.84
2022-08-16T20:05:49.703Z,98050.15
2022-08-16T20:08:23.210Z,98061.03
2022-08-16T20:10:56.445Z,98062.63
2022-08-16T20:13:29.133Z,98060.82
2022-08-16T20:16:03.729Z,98059.15
2022-08-16T20:18:37.981Z,98057.66
2022-08-16T20:21:10.619Z,98054.25
2022-08-16T20:23:42.684Z,98060.48
2022-08-16T20:26:14.756Z,98059.08
2022-08-16T20:28:54.007Z,98059.40
2022-08-16T20:31:27.107Z,98062.47
2022-08-16T20:33:59.907Z,98065.13
2022-08-16T20:36:33.785Z,98072.52
2022-08-16T20:39:07.930Z,98075.02
2022-08-16T20:41:41.109Z,98077.39
2022-08-16T20:44:14.215Z,98072.27
2022-08-16T20:46:46.261Z,98068.46
2022-08-16T20:49:18.761Z,98069.62
2022-08-16T20:51:56.067Z,98067.79
2022-08-16T20:54:32.889Z,98072.02
2022-08-16T20:57:07.205Z,98077.27
2022-08-16T20:59:43.775Z,98085.02
2022-08-16T21:02:27.198Z,98079.77
2022-08-16T21:04:59.285Z,98083.66
2022-08-16T21:07:33.819Z,98084.64
2022-08-16T21:10:08.791Z,98086.94
2022-08-16T21:12:50.853Z,98086.38
2022-08-16T21:15:24.033Z,98092.21
2022-08-16T21:17:57.509Z,98093.31
2022-08-16T21:20:30.670Z,98092.77
2022-08-16T21:23:05.118Z,98092.91
2022-08-16T21:25:42.888Z,98091.15
2022-08-16T21:28:39.560Z,98090.80
2022-08-16T21:31:15.983Z,98092.10
2022-08-16T21:33:55.730Z,98093.08
2022-08-16T21:36:35.692Z,98094.27
2022-08-16T21:39:09.793Z,98092.39
2022-08-16T21:41:42.525Z,98091.92
2022-08-16T21:44:15.276Z,98088.80
2022-08-16T21:46:48.108Z,98082.27
2022-08-16T21:49:20.908Z,98085.75
2022-08-16T21:51:53.054Z,98091.38
2022-08-16T21:54:25.944Z,98093.60
2022-08-16T21:56:58.666Z,98097.69
2022-08-16T21:59:31.539Z,98098.55
2022-08-16T22:02:04.071Z,98100.08
2022-08-16T22:04:39.128Z,98102.39
2022-08-16T22:07:13.140Z,98103.24
2022-08-16T22:09:46.061Z,98104.67
2022-08-16T22:12:21.640Z,98105.52
2022-08-16T22:14:58.791Z,98101.02
2022-08-16T22:17:31.252Z,98101.84
2022-08-16T22:20:03.905Z,98099.56
2022-08-16T22:22:38.194Z,98101.02
2022-08-16T22:25:13.106Z,98100.80
2022-08-16T22:27:47.277Z,98102.09
2022-08-16T22:30:19.937Z,98101.77
2022-08-16T22:32:52.748Z,98103.78
2022-08-16T22:35:25.549Z,98104.59
2022-08-16T22:38:50.587Z,98104.58
2022-08-16T22:40:50.394Z,98099.11
2022-08-16T22:43:23.649Z,98094.45
2022-08-16T22:45:57.454Z,98091.38
2022-08-16T22:48:29.521Z,98086.61
2022-08-16T22:51:03.098Z,98087.71
2022-08-16T22:53:35.515Z,98085.30
2022-08-16T22:56:12.394Z,98084.80
2022-08-16T22:58:46.693Z,98084.27
2022-08-16T23:01:21.841Z,98080.02
2022-08-16T23:03:55.555Z,98080.80
2022-08-16T23:06:27.454Z,98077.70
2022-08-16T23:08:59.472Z,98077.44
2022-08-16T23:11:31.911Z,98077.76
2022-08-16T23:14:04.221Z,98072.51
2022-08-16T23:16:36.387Z,98072.93
2022-08-16T23:19:12.367Z,98069.81
2022-08-16T23:21:48.554Z,98061.72
2022-08-16T23:24:21.637Z,98061.25
2022-08-16T23:26:54.247Z,98059.71
2022-08-16T23:29:26.852Z,98054.98
2022-08-16T23:32:11.535Z,98056.48
2022-08-16T23:34:43.871Z,98055.86
2022-08-16T23:37:16.052Z,98058.78
2022-08-16T23:39:48.641Z,98057.98
2022-08-16T23:42:53.275Z,98060.41
2022-08-16T23:45:22.601Z,98054.33
2022-08-16T23:47:54.886Z,98056.36
2022-08-16T23:50:28.485Z,98054.91
2022-08-16T23:53:04.793Z,98055.23
2022-08-16T23:55:41.168Z,98053.21
2022-08-16T23:58:16.200Z,98053.81
